sensor_id;sensor_type;location;lat;lon;timestamp;temperature;humidity
65568;DHT22;52211;50.154;8.682;2023-06-26T00:01:37;24.50;39.90
65568;DHT22;52211;50.154;8.682;2023-06-26T00:04:07;24.50;40.10
65568;DHT22;52211;50.154;8.682;2023-06-26T00:06:36;24.40;40.10
65568;DHT22;52211;50.154;8.682;2023-06-26T00:09:05;24.30;40.50
65568;DHT22;52211;50.154;8.682;2023-06-26T00:11:34;24.30;40.30
65568;DHT22;52211;50.154;8.682;2023-06-26T00:14:08;24.30;40.40
65568;DHT22;52211;50.154;8.682;2023-06-26T00:16:42;24.30;40.70
65568;DHT22;52211;50.154;8.682;2023-06-26T00:19:11;24.30;40.70
65568;DHT22;52211;50.154;8.682;2023-06-26T00:21:41;24.20;40.60
65568;DHT22;52211;50.154;8.682;2023-06-26T00:24:14;24.20;40.70
65568;DHT22;52211;50.154;8.682;2023-06-26T00:26:41;24.10;40.80
65568;DHT22;52211;50.154;8.682;2023-06-26T00:29:17;24.00;40.90
65568;DHT22;52211;50.154;8.682;2023-06-26T00:31:44;24.00;41.30
65568;DHT22;52211;50.154;8.682;2023-06-26T00:34:11;23.90;41.20
65568;DHT22;52211;50.154;8.682;2023-06-26T00:36:44;23.80;41.30
65568;DHT22;52211;50.154;8.682;2023-06-26T00:39:14;23.80;41.70
65568;DHT22;52211;50.154;8.682;2023-06-26T00:41:41;23.70;41.60
65568;DHT22;52211;50.154;8.682;2023-06-26T00:44:10;23.70;41.80
65568;DHT22;52211;50.154;8.682;2023-06-26T00:46:40;23.60;41.80
65568;DHT22;52211;50.154;8.682;2023-06-26T00:49:12;23.60;42.00
65568;DHT22;52211;50.154;8.682;2023-06-26T00:51:40;23.50;42.10
65568;DHT22;52211;50.154;8.682;2023-06-26T00:54:08;23.50;42.20
65568;DHT22;52211;50.154;8.682;2023-06-26T00:56:39;23.50;42.30
65568;DHT22;52211;50.154;8.682;2023-06-26T00:59:08;23.50;42.40
65568;DHT22;52211;50.154;8.682;2023-06-26T01:01:37;23.40;42.50
65568;DHT22;52211;50.154;8.682;2023-06-26T01:04:04;23.40;42.90
65568;DHT22;52211;50.154;8.682;2023-06-26T01:06:33;23.30;42.70
65568;DHT22;52211;50.154;8.682;2023-06-26T01:09:08;23.30;42.90
65568;DHT22;52211;50.154;8.682;2023-06-26T01:11:35;23.20;43.00
65568;DHT22;52211;50.154;8.682;2023-06-26T01:14:06;23.20;43.10
65568;DHT22;52211;50.154;8.682;2023-06-26T01:16:35;23.10;43.20
65568;DHT22;52211;50.154;8.682;2023-06-26T01:19:05;23.10;43.40
65568;DHT22;52211;50.154;8.682;2023-06-26T01:21:43;23.10;43.50
65568;DHT22;52211;50.154;8.682;2023-06-26T01:24:19;23.00;43.90
65568;DHT22;52211;50.154;8.682;2023-06-26T01:26:52;23.00;43.70
65568;DHT22;52211;50.154;8.682;2023-06-26T01:29:30;23.00;43.80
65568;DHT22;52211;50.154;8.682;2023-06-26T01:32:01;23.00;44.30
65568;DHT22;52211;50.154;8.682;2023-06-26T01:34:29;22.90;44.70
65568;DHT22;52211;50.154;8.682;2023-06-26T01:36:59;22.90;44.20
65568;DHT22;52211;50.154;8.682;2023-06-26T01:39:28;22.80;44.40
65568;DHT22;52211;50.154;8.682;2023-06-26T01:41:57;22.80;44.20
65568;DHT22;52211;50.154;8.682;2023-06-26T01:44:30;22.80;44.30
65568;DHT22;52211;50.154;8.682;2023-06-26T01:47:11;22.70;45.10
65568;DHT22;52211;50.154;8.682;2023-06-26T01:50:16;22.70;45.10
65568;DHT22;52211;50.154;8.682;2023-06-26T01:52:56;22.60;45.30
65568;DHT22;52211;50.154;8.682;2023-06-26T01:58:26;22.60;45.60
65568;DHT22;52211;50.154;8.682;2023-06-26T02:00:54;22.60;45.00
65568;DHT22;52211;50.154;8.682;2023-06-26T02:03:21;22.50;44.90
65568;DHT22;52211;50.154;8.682;2023-06-26T02:05:51;22.50;45.10
65568;DHT22;52211;50.154;8.682;2023-06-26T02:08:25;22.50;45.20
65568;DHT22;52211;50.154;8.682;2023-06-26T02:10:56;22.50;45.50
65568;DHT22;52211;50.154;8.682;2023-06-26T02:13:25;22.50;45.30
65568;DHT22;52211;50.154;8.682;2023-06-26T02:15:54;22.40;45.40
65568;DHT22;52211;50.154;8.682;2023-06-26T02:18:28;22.40;45.50
65568;DHT22;52211;50.154;8.682;2023-06-26T02:20:59;22.40;45.60
65568;DHT22;52211;50.154;8.682;2023-06-26T02:23:26;22.30;45.90
65568;DHT22;52211;50.154;8.682;2023-06-26T02:25:56;22.30;46.50
65568;DHT22;52211;50.154;8.682;2023-06-26T02:28:27;22.20;46.20
65568;DHT22;52211;50.154;8.682;2023-06-26T02:30:56;22.20;46.00
65568;DHT22;52211;50.154;8.682;2023-06-26T02:33:24;22.20;46.20
65568;DHT22;52211;50.154;8.682;2023-06-26T02:35:53;22.10;46.30
65568;DHT22;52211;50.154;8.682;2023-06-26T02:38:22;22.10;46.40
65568;DHT22;52211;50.154;8.682;2023-06-26T02:40:49;22.10;46.80
65568;DHT22;52211;50.154;8.682;2023-06-26T02:43:18;22.10;46.70
65568;DHT22;52211;50.154;8.682;2023-06-26T02:45:48;22.00;46.70
65568;DHT22;52211;50.154;8.682;2023-06-26T02:48:15;22.00;46.90
65568;DHT22;52211;50.154;8.682;2023-06-26T02:50:42;21.90;46.90
65568;DHT22;52211;50.154;8.682;2023-06-26T02:53:14;21.90;47.10
65568;DHT22;52211;50.154;8.682;2023-06-26T02:55:46;21.90;47.20
65568;DHT22;52211;50.154;8.682;2023-06-26T02:58:18;21.90;47.60
65568;DHT22;52211;50.154;8.682;2023-06-26T03:00:47;21.80;47.30
65568;DHT22;52211;50.154;8.682;2023-06-26T03:03:19;21.80;47.30
65568;DHT22;52211;50.154;8.682;2023-06-26T03:05:48;21.80;47.70
65568;DHT22;52211;50.154;8.682;2023-06-26T03:08:19;21.70;47.50
65568;DHT22;52211;50.154;8.682;2023-06-26T03:10:49;21.70;47.60
65568;DHT22;52211;50.154;8.682;2023-06-26T03:13:16;21.70;48.00
65568;DHT22;52211;50.154;8.682;2023-06-26T03:15:43;21.60;47.90
65568;DHT22;52211;50.154;8.682;2023-06-26T03:18:10;21.60;48.60
65568;DHT22;52211;50.154;8.682;2023-06-26T03:20:39;21.60;48.10
65568;DHT22;52211;50.154;8.682;2023-06-26T03:23:08;21.60;48.20
65568;DHT22;52211;50.154;8.682;2023-06-26T03:25:38;21.60;48.20
65568;DHT22;52211;50.154;8.682;2023-06-26T03:28:26;21.50;48.50
65568;DHT22;52211;50.154;8.682;2023-06-26T03:30:53;21.50;48.60
65568;DHT22;52211;50.154;8.682;2023-06-26T03:33:25;21.50;48.50
65568;DHT22;52211;50.154;8.682;2023-06-26T03:35:57;21.50;48.60
65568;DHT22;52211;50.154;8.682;2023-06-26T03:38:26;21.40;48.60
65568;DHT22;52211;50.154;8.682;2023-06-26T03:40:58;21.40;48.70
65568;DHT22;52211;50.154;8.682;2023-06-26T03:43:25;21.40;48.80
65568;DHT22;52211;50.154;8.682;2023-06-26T03:46:10;21.40;49.00
65568;DHT22;52211;50.154;8.682;2023-06-26T03:48:37;21.30;49.00
65568;DHT22;52211;50.154;8.682;2023-06-26T03:51:05;21.30;49.10
65568;DHT22;52211;50.154;8.682;2023-06-26T03:53:36;21.30;49.20
65568;DHT22;52211;50.154;8.682;2023-06-26T03:56:03;21.30;49.50
65568;DHT22;52211;50.154;8.682;2023-06-26T03:58:32;21.30;49.30
65568;DHT22;52211;50.154;8.682;2023-06-26T04:01:01;21.30;49.40
65568;DHT22;52211;50.154;8.682;2023-06-26T04:03:31;21.30;49.50
65568;DHT22;52211;50.154;8.682;2023-06-26T04:06:00;21.30;49.50
65568;DHT22;52211;50.154;8.682;2023-06-26T04:08:27;21.30;49.80
65568;DHT22;52211;50.154;8.682;2023-06-26T04:10:55;21.30;49.70
65568;DHT22;52211;50.154;8.682;2023-06-26T04:13:27;21.30;49.80
65568;DHT22;52211;50.154;8.682;2023-06-26T04:15:59;21.30;49.80
65568;DHT22;52211;50.154;8.682;2023-06-26T04:18:26;21.40;50.60
65568;DHT22;52211;50.154;8.682;2023-06-26T04:21:13;21.40;49.70
65568;DHT22;52211;50.154;8.682;2023-06-26T04:23:48;21.40;50.40
65568;DHT22;52211;50.154;8.682;2023-06-26T04:26:17;21.40;49.80
65568;DHT22;52211;50.154;8.682;2023-06-26T04:28:47;21.40;49.90
65568;DHT22;52211;50.154;8.682;2023-06-26T04:31:18;21.50;50.00
65568;DHT22;52211;50.154;8.682;2023-06-26T04:33:45;21.40;50.00
65568;DHT22;52211;50.154;8.682;2023-06-26T04:36:17;21.50;50.00
65568;DHT22;52211;50.154;8.682;2023-06-26T04:38:49;21.50;50.00
65568;DHT22;52211;50.154;8.682;2023-06-26T04:41:18;21.50;50.00
65568;DHT22;52211;50.154;8.682;2023-06-26T04:43:48;21.50;50.00
65568;DHT22;52211;50.154;8.682;2023-06-26T04:46:17;21.60;49.90
65568;DHT22;52211;50.154;8.682;2023-06-26T04:48:49;21.60;50.30
65568;DHT22;52211;50.154;8.682;2023-06-26T04:51:20;21.60;50.10
65568;DHT22;52211;50.154;8.682;2023-06-26T04:53:47;21.70;50.00
65568;DHT22;52211;50.154;8.682;2023-06-26T04:56:17;21.70;49.90
65568;DHT22;52211;50.154;8.682;2023-06-26T04:58:43;21.70;49.90
65568;DHT22;52211;50.154;8.682;2023-06-26T05:01:10;21.70;50.00
65568;DHT22;52211;50.154;8.682;2023-06-26T05:03:40;21.70;50.00
65568;DHT22;52211;50.154;8.682;2023-06-26T05:06:07;21.80;50.10
65568;DHT22;52211;50.154;8.682;2023-06-26T05:08:37;21.80;50.00
65568;DHT22;52211;50.154;8.682;2023-06-26T05:11:04;21.90;50.10
65568;DHT22;52211;50.154;8.682;2023-06-26T05:13:33;21.90;50.20
65568;DHT22;52211;50.154;8.682;2023-06-26T05:16:00;22.00;50.30
65568;DHT22;52211;50.154;8.682;2023-06-26T05:18:32;22.10;50.30
65568;DHT22;52211;50.154;8.682;2023-06-26T05:21:03;22.10;50.40
65568;DHT22;52211;50.154;8.682;2023-06-26T05:23:32;22.20;51.20
65568;DHT22;52211;50.154;8.682;2023-06-26T05:26:03;22.30;50.50
65568;DHT22;52211;50.154;8.682;2023-06-26T05:28:33;22.30;50.60
65568;DHT22;52211;50.154;8.682;2023-06-26T05:31:05;22.40;50.50
65568;DHT22;52211;50.154;8.682;2023-06-26T05:33:35;22.50;50.60
65568;DHT22;52211;50.154;8.682;2023-06-26T05:36:04;22.50;50.30
65568;DHT22;52211;50.154;8.682;2023-06-26T05:38:38;22.60;50.40
65568;DHT22;52211;50.154;8.682;2023-06-26T05:41:07;22.70;50.40
65568;DHT22;52211;50.154;8.682;2023-06-26T05:43:36;22.80;50.50
65568;DHT22;52211;50.154;8.682;2023-06-26T05:46:03;22.90;50.30
65568;DHT22;52211;50.154;8.682;2023-06-26T05:48:32;22.90;50.20
65568;DHT22;52211;50.154;8.682;2023-06-26T05:51:02;23.00;50.20
65568;DHT22;52211;50.154;8.682;2023-06-26T05:53:35;23.10;50.20
65568;DHT22;52211;50.154;8.682;2023-06-26T05:56:05;23.20;50.30
65568;DHT22;52211;50.154;8.682;2023-06-26T05:58:34;23.30;50.10
65568;DHT22;52211;50.154;8.682;2023-06-26T06:01:04;23.40;50.20
65568;DHT22;52211;50.154;8.682;2023-06-26T06:03:31;23.50;50.00
65568;DHT22;52211;50.154;8.682;2023-06-26T06:06:01;23.60;50.00
65568;DHT22;52211;50.154;8.682;2023-06-26T06:08:30;23.60;50.00
65568;DHT22;52211;50.154;8.682;2023-06-26T06:11:02;23.70;50.00
65568;DHT22;52211;50.154;8.682;2023-06-26T06:13:29;23.80;50.00
65568;DHT22;52211;50.154;8.682;2023-06-26T06:16:01;23.90;50.00
65568;DHT22;52211;50.154;8.682;2023-06-26T06:18:28;23.90;49.90
65568;DHT22;52211;50.154;8.682;2023-06-26T06:20:55;24.00;49.90
65568;DHT22;52211;50.154;8.682;2023-06-26T06:23:22;24.10;49.90
65568;DHT22;52211;50.154;8.682;2023-06-26T06:25:51;24.10;49.70
65568;DHT22;52211;50.154;8.682;2023-06-26T06:28:20;24.20;49.60
65568;DHT22;52211;50.154;8.682;2023-06-26T06:30:50;24.30;49.60
65568;DHT22;52211;50.154;8.682;2023-06-26T06:33:17;24.40;49.50
65568;DHT22;52211;50.154;8.682;2023-06-26T06:35:47;24.50;49.40
65568;DHT22;52211;50.154;8.682;2023-06-26T06:38:17;24.60;49.10
65568;DHT22;52211;50.154;8.682;2023-06-26T06:40:51;24.70;49.60
65568;DHT22;52211;50.154;8.682;2023-06-26T06:43:18;24.80;48.70
65568;DHT22;52211;50.154;8.682;2023-06-26T06:45:45;24.80;48.60
65568;DHT22;52211;50.154;8.682;2023-06-26T06:48:12;24.90;48.60
65568;DHT22;52211;50.154;8.682;2023-06-26T06:50:39;24.90;48.50
65568;DHT22;52211;50.154;8.682;2023-06-26T06:53:09;25.00;48.40
65568;DHT22;52211;50.154;8.682;2023-06-26T06:55:37;25.00;48.30
65568;DHT22;52211;50.154;8.682;2023-06-26T06:58:08;25.10;48.20
65568;DHT22;52211;50.154;8.682;2023-06-26T07:00:35;25.10;48.10
65568;DHT22;52211;50.154;8.682;2023-06-26T07:03:07;25.20;48.70
65568;DHT22;52211;50.154;8.682;2023-06-26T07:05:34;25.20;48.00
65568;DHT22;52211;50.154;8.682;2023-06-26T07:08:03;25.40;48.10
65568;DHT22;52211;50.154;8.682;2023-06-26T07:10:33;25.40;48.00
65568;DHT22;52211;50.154;8.682;2023-06-26T07:13:02;25.50;47.90
65568;DHT22;52211;50.154;8.682;2023-06-26T07:15:30;25.60;47.80
65568;DHT22;52211;50.154;8.682;2023-06-26T07:17:57;25.60;47.60
65568;DHT22;52211;50.154;8.682;2023-06-26T07:20:27;25.60;47.50
65568;DHT22;52211;50.154;8.682;2023-06-26T07:22:54;25.70;47.40
65568;DHT22;52211;50.154;8.682;2023-06-26T07:25:21;25.80;47.30
65568;DHT22;52211;50.154;8.682;2023-06-26T07:27:48;25.80;47.20
65568;DHT22;52211;50.154;8.682;2023-06-26T07:30:17;25.90;47.30
65568;DHT22;52211;50.154;8.682;2023-06-26T07:32:45;26.00;47.10
65568;DHT22;52211;50.154;8.682;2023-06-26T07:35:17;26.10;47.00
65568;DHT22;52211;50.154;8.682;2023-06-26T07:37:44;26.10;46.90
65568;DHT22;52211;50.154;8.682;2023-06-26T07:40:13;26.20;46.80
65568;DHT22;52211;50.154;8.682;2023-06-26T07:42:42;26.20;46.80
65568;DHT22;52211;50.154;8.682;2023-06-26T07:45:09;26.30;46.80
65568;DHT22;52211;50.154;8.682;2023-06-26T07:47:46;26.40;46.70
65568;DHT22;52211;50.154;8.682;2023-06-26T07:50:16;26.40;46.50
65568;DHT22;52211;50.154;8.682;2023-06-26T07:52:49;26.50;46.50
65568;DHT22;52211;50.154;8.682;2023-06-26T07:55:19;26.60;46.50
65568;DHT22;52211;50.154;8.682;2023-06-26T07:57:51;26.70;46.30
65568;DHT22;52211;50.154;8.682;2023-06-26T08:00:22;26.80;46.20
65568;DHT22;52211;50.154;8.682;2023-06-26T08:02:53;26.90;46.10
65568;DHT22;52211;50.154;8.682;2023-06-26T08:05:25;26.90;45.90
65568;DHT22;52211;50.154;8.682;2023-06-26T08:07:55;27.00;45.80
65568;DHT22;52211;50.154;8.682;2023-06-26T08:10:21;27.10;45.80
65568;DHT22;52211;50.154;8.682;2023-06-26T08:12:50;27.20;45.60
65568;DHT22;52211;50.154;8.682;2023-06-26T08:15:24;27.30;45.60
65568;DHT22;52211;50.154;8.682;2023-06-26T08:17:54;27.40;45.50
65568;DHT22;52211;50.154;8.682;2023-06-26T08:20:21;27.50;45.30
65568;DHT22;52211;50.154;8.682;2023-06-26T08:22:50;27.60;45.40
65568;DHT22;52211;50.154;8.682;2023-06-26T08:25:21;27.80;45.20
65568;DHT22;52211;50.154;8.682;2023-06-26T08:27:47;27.90;44.70
65568;DHT22;52211;50.154;8.682;2023-06-26T08:30:14;28.00;44.60
65568;DHT22;52211;50.154;8.682;2023-06-26T08:32:46;28.10;44.50
65568;DHT22;52211;50.154;8.682;2023-06-26T08:35:13;28.20;44.20
65568;DHT22;52211;50.154;8.682;2023-06-26T08:37:40;28.30;44.30
65568;DHT22;52211;50.154;8.682;2023-06-26T08:40:08;28.40;44.10
65568;DHT22;52211;50.154;8.682;2023-06-26T08:42:35;28.50;43.90
65568;DHT22;52211;50.154;8.682;2023-06-26T08:45:04;28.60;43.70
65568;DHT22;52211;50.154;8.682;2023-06-26T08:47:35;28.60;43.60
65568;DHT22;52211;50.154;8.682;2023-06-26T08:50:10;28.60;43.30
65568;DHT22;52211;50.154;8.682;2023-06-26T08:53:04;28.70;43.20
65568;DHT22;52211;50.154;8.682;2023-06-26T08:55:41;28.70;43.00
65568;DHT22;52211;50.154;8.682;2023-06-26T08:58:12;28.70;43.20
65568;DHT22;52211;50.154;8.682;2023-06-26T09:00:45;28.80;43.20
65568;DHT22;52211;50.154;8.682;2023-06-26T09:03:12;28.80;43.20
65568;DHT22;52211;50.154;8.682;2023-06-26T09:05:44;28.80;43.10
65568;DHT22;52211;50.154;8.682;2023-06-26T09:08:11;28.80;43.10
65568;DHT22;52211;50.154;8.682;2023-06-26T09:10:40;28.80;43.00
65568;DHT22;52211;50.154;8.682;2023-06-26T09:13:16;28.90;43.10
65568;DHT22;52211;50.154;8.682;2023-06-26T09:15:58;28.90;43.00
65568;DHT22;52211;50.154;8.682;2023-06-26T09:18:32;29.00;43.10
65568;DHT22;52211;50.154;8.682;2023-06-26T09:20:59;29.10;43.10
65568;DHT22;52211;50.154;8.682;2023-06-26T09:23:26;29.30;42.90
65568;DHT22;52211;50.154;8.682;2023-06-26T09:25:56;29.40;42.70
65568;DHT22;52211;50.154;8.682;2023-06-26T09:28:28;29.50;42.80
65568;DHT22;52211;50.154;8.682;2023-06-26T09:31:04;29.60;42.40
65568;DHT22;52211;50.154;8.682;2023-06-26T09:33:35;29.60;42.30
65568;DHT22;52211;50.154;8.682;2023-06-26T09:36:21;29.70;42.10
65568;DHT22;52211;50.154;8.682;2023-06-26T09:38:52;29.70;41.90
65568;DHT22;52211;50.154;8.682;2023-06-26T09:41:24;29.80;41.90
65568;DHT22;52211;50.154;8.682;2023-06-26T09:43:51;29.80;41.70
65568;DHT22;52211;50.154;8.682;2023-06-26T09:46:27;29.90;41.70
65568;DHT22;52211;50.154;8.682;2023-06-26T09:48:59;29.90;41.40
65568;DHT22;52211;50.154;8.682;2023-06-26T09:51:32;30.00;41.20
65568;DHT22;52211;50.154;8.682;2023-06-26T09:54:01;30.00;41.20
65568;DHT22;52211;50.154;8.682;2023-06-26T09:56:30;30.10;41.20
65568;DHT22;52211;50.154;8.682;2023-06-26T09:59:00;30.20;41.30
65568;DHT22;52211;50.154;8.682;2023-06-26T10:01:32;30.30;41.30
65568;DHT22;52211;50.154;8.682;2023-06-26T10:04:00;30.30;40.90
65568;DHT22;52211;50.154;8.682;2023-06-26T10:06:36;30.40;41.10
65568;DHT22;52211;50.154;8.682;2023-06-26T10:09:08;30.40;41.00
65568;DHT22;52211;50.154;8.682;2023-06-26T10:11:56;30.50;41.00
65568;DHT22;52211;50.154;8.682;2023-06-26T10:14:33;30.50;41.00
65568;DHT22;52211;50.154;8.682;2023-06-26T10:17:16;30.60;41.20
65568;DHT22;52211;50.154;8.682;2023-06-26T10:19:49;30.60;41.00
65568;DHT22;52211;50.154;8.682;2023-06-26T10:22:20;30.70;41.00
65568;DHT22;52211;50.154;8.682;2023-06-26T10:24:55;30.80;41.00
65568;DHT22;52211;50.154;8.682;2023-06-26T10:27:36;30.90;40.80
65568;DHT22;52211;50.154;8.682;2023-06-26T10:30:17;30.90;40.70
65568;DHT22;52211;50.154;8.682;2023-06-26T10:32:55;31.00;40.60
65568;DHT22;52211;50.154;8.682;2023-06-26T10:35:25;31.10;40.60
65568;DHT22;52211;50.154;8.682;2023-06-26T10:38:03;31.20;40.70
65568;DHT22;52211;50.154;8.682;2023-06-26T10:40:45;31.20;40.10
65568;DHT22;52211;50.154;8.682;2023-06-26T10:43:15;31.20;40.40
65568;DHT22;52211;50.154;8.682;2023-06-26T10:45:47;31.30;40.40
65568;DHT22;52211;50.154;8.682;2023-06-26T10:48:29;31.40;40.10
65568;DHT22;52211;50.154;8.682;2023-06-26T10:51:15;31.50;39.70
65568;DHT22;52211;50.154;8.682;2023-06-26T10:53:53;31.60;40.10
65568;DHT22;52211;50.154;8.682;2023-06-26T10:59:20;31.90;40.00
65568;DHT22;52211;50.154;8.682;2023-06-26T11:02:01;32.20;39.50
65568;DHT22;52211;50.154;8.682;2023-06-26T11:04:45;32.30;38.80
65568;DHT22;52211;50.154;8.682;2023-06-26T11:07:23;32.40;38.60
65568;DHT22;52211;50.154;8.682;2023-06-26T11:10:05;32.50;38.40
65568;DHT22;52211;50.154;8.682;2023-06-26T11:12:38;32.50;38.40
65568;DHT22;52211;50.154;8.682;2023-06-26T11:17:39;32.70;38.50
65568;DHT22;52211;50.154;8.682;2023-06-26T11:20:13;32.80;38.40
65568;DHT22;52211;50.154;8.682;2023-06-26T11:22:44;32.90;38.20
65568;DHT22;52211;50.154;8.682;2023-06-26T11:25:13;33.10;38.50
65568;DHT22;52211;50.154;8.682;2023-06-26T11:27:41;33.40;38.70
65568;DHT22;52211;50.154;8.682;2023-06-26T11:30:24;33.60;38.40
65568;DHT22;52211;50.154;8.682;2023-06-26T11:33:01;33.80;37.60
65568;DHT22;52211;50.154;8.682;2023-06-26T11:35:31;34.00;37.50
65568;DHT22;52211;50.154;8.682;2023-06-26T11:38:04;34.20;37.70
65568;DHT22;52211;50.154;8.682;2023-06-26T11:40:35;34.30;37.40
65568;DHT22;52211;50.154;8.682;2023-06-26T11:43:07;34.40;37.10
65568;DHT22;52211;50.154;8.682;2023-06-26T11:45:39;34.60;36.60
65568;DHT22;52211;50.154;8.682;2023-06-26T11:48:09;34.60;36.20
65568;DHT22;52211;50.154;8.682;2023-06-26T11:50:38;34.70;36.40
65568;DHT22;52211;50.154;8.682;2023-06-26T11:53:05;34.70;36.30
65568;DHT22;52211;50.154;8.682;2023-06-26T11:55:41;34.90;36.50
65568;DHT22;52211;50.154;8.682;2023-06-26T11:58:15;34.90;36.20
65568;DHT22;52211;50.154;8.682;2023-06-26T12:00:47;35.00;36.20
65568;DHT22;52211;50.154;8.682;2023-06-26T12:03:15;35.20;36.30
65568;DHT22;52211;50.154;8.682;2023-06-26T12:05:44;35.30;36.30
65568;DHT22;52211;50.154;8.682;2023-06-26T12:08:14;35.50;36.20
65568;DHT22;52211;50.154;8.682;2023-06-26T12:10:45;35.70;36.20
65568;DHT22;52211;50.154;8.682;2023-06-26T12:13:12;35.80;35.80
65568;DHT22;52211;50.154;8.682;2023-06-26T12:15:44;36.00;35.30
65568;DHT22;52211;50.154;8.682;2023-06-26T12:18:11;36.10;35.20
65568;DHT22;52211;50.154;8.682;2023-06-26T12:20:40;36.10;35.10
65568;DHT22;52211;50.154;8.682;2023-06-26T12:23:13;36.20;35.10
65568;DHT22;52211;50.154;8.682;2023-06-26T12:25:40;36.20;34.70
65568;DHT22;52211;50.154;8.682;2023-06-26T12:28:18;36.20;35.20
65568;DHT22;52211;50.154;8.682;2023-06-26T12:31:17;36.20;34.70
65568;DHT22;52211;50.154;8.682;2023-06-26T12:33:54;36.30;35.20
65568;DHT22;52211;50.154;8.682;2023-06-26T12:36:24;36.40;35.20
65568;DHT22;52211;50.154;8.682;2023-06-26T12:38:53;36.40;34.90
65568;DHT22;52211;50.154;8.682;2023-06-26T12:41:24;36.30;34.60
65568;DHT22;52211;50.154;8.682;2023-06-26T12:43:55;36.30;34.70
65568;DHT22;52211;50.154;8.682;2023-06-26T12:46:37;36.30;34.80
65568;DHT22;52211;50.154;8.682;2023-06-26T12:49:05;36.30;35.10
65568;DHT22;52211;50.154;8.682;2023-06-26T12:51:52;36.50;34.70
65568;DHT22;52211;50.154;8.682;2023-06-26T12:54:21;36.50;34.40
65568;DHT22;52211;50.154;8.682;2023-06-26T12:56:48;36.40;34.30
65568;DHT22;52211;50.154;8.682;2023-06-26T12:59:15;36.30;34.20
65568;DHT22;52211;50.154;8.682;2023-06-26T13:01:44;36.20;34.20
65568;DHT22;52211;50.154;8.682;2023-06-26T13:04:14;36.10;34.30
65568;DHT22;52211;50.154;8.682;2023-06-26T13:06:46;36.10;34.30
65568;DHT22;52211;50.154;8.682;2023-06-26T13:09:17;36.00;34.50
65568;DHT22;52211;50.154;8.682;2023-06-26T13:11:47;36.00;34.50
65568;DHT22;52211;50.154;8.682;2023-06-26T13:14:14;35.90;34.30
65568;DHT22;52211;50.154;8.682;2023-06-26T13:16:41;35.80;34.10
65568;DHT22;52211;50.154;8.682;2023-06-26T13:19:10;35.70;33.80
65568;DHT22;52211;50.154;8.682;2023-06-26T13:21:39;35.50;33.90
65568;DHT22;52211;50.154;8.682;2023-06-26T13:24:06;35.40;34.00
65568;DHT22;52211;50.154;8.682;2023-06-26T13:26:36;35.20;33.90
65568;DHT22;52211;50.154;8.682;2023-06-26T13:29:06;35.10;34.00
65568;DHT22;52211;50.154;8.682;2023-06-26T13:31:38;35.10;34.20
65568;DHT22;52211;50.154;8.682;2023-06-26T13:34:07;35.10;34.10
65568;DHT22;52211;50.154;8.682;2023-06-26T13:36:34;35.10;34.00
65568;DHT22;52211;50.154;8.682;2023-06-26T13:39:06;35.00;34.10
65568;DHT22;52211;50.154;8.682;2023-06-26T13:41:34;35.10;34.40
65568;DHT22;52211;50.154;8.682;2023-06-26T13:44:01;35.20;34.40
65568;DHT22;52211;50.154;8.682;2023-06-26T13:46:48;35.30;34.30
65568;DHT22;52211;50.154;8.682;2023-06-26T13:49:20;35.40;34.20
65568;DHT22;52211;50.154;8.682;2023-06-26T13:51:50;35.40;34.00
65568;DHT22;52211;50.154;8.682;2023-06-26T13:54:19;35.40;33.90
65568;DHT22;52211;50.154;8.682;2023-06-26T13:56:52;35.40;33.60
65568;DHT22;52211;50.154;8.682;2023-06-26T13:59:27;35.20;33.50
65568;DHT22;52211;50.154;8.682;2023-06-26T14:01:56;35.20;33.70
65568;DHT22;52211;50.154;8.682;2023-06-26T14:04:26;35.10;33.50
65568;DHT22;52211;50.154;8.682;2023-06-26T14:06:53;35.20;33.80
65568;DHT22;52211;50.154;8.682;2023-06-26T14:09:22;35.20;33.80
65568;DHT22;52211;50.154;8.682;2023-06-26T14:11:49;35.40;33.80
65568;DHT22;52211;50.154;8.682;2023-06-26T14:14:23;35.50;33.70
65568;DHT22;52211;50.154;8.682;2023-06-26T14:16:53;35.60;33.30
65568;DHT22;52211;50.154;8.682;2023-06-26T14:19:20;35.80;33.20
65568;DHT22;52211;50.154;8.682;2023-06-26T14:21:49;35.90;32.80
65568;DHT22;52211;50.154;8.682;2023-06-26T14:24:16;36.00;32.60
65568;DHT22;52211;50.154;8.682;2023-06-26T14:26:43;36.10;32.30
65568;DHT22;52211;50.154;8.682;2023-06-26T14:29:10;36.10;31.90
65568;DHT22;52211;50.154;8.682;2023-06-26T14:31:39;36.10;32.10
65568;DHT22;52211;50.154;8.682;2023-06-26T14:34:06;36.00;31.90
65568;DHT22;52211;50.154;8.682;2023-06-26T14:36:35;35.90;31.90
65568;DHT22;52211;50.154;8.682;2023-06-26T14:39:04;35.80;31.80
65568;DHT22;52211;50.154;8.682;2023-06-26T14:41:34;35.70;31.80
65568;DHT22;52211;50.154;8.682;2023-06-26T14:44:03;35.50;31.60
65568;DHT22;52211;50.154;8.682;2023-06-26T14:46:37;35.40;31.70
65568;DHT22;52211;50.154;8.682;2023-06-26T14:49:07;35.30;31.20
65568;DHT22;52211;50.154;8.682;2023-06-26T14:51:34;35.20;31.40
65568;DHT22;52211;50.154;8.682;2023-06-26T14:54:01;35.10;31.50
65568;DHT22;52211;50.154;8.682;2023-06-26T14:56:29;35.10;31.40
65568;DHT22;52211;50.154;8.682;2023-06-26T14:58:58;35.10;31.30
65568;DHT22;52211;50.154;8.682;2023-06-26T15:01:30;35.10;31.20
65568;DHT22;52211;50.154;8.682;2023-06-26T15:04:05;35.10;31.10
65568;DHT22;52211;50.154;8.682;2023-06-26T15:06:34;35.10;31.10
65568;DHT22;52211;50.154;8.682;2023-06-26T15:09:01;35.10;31.10
65568;DHT22;52211;50.154;8.682;2023-06-26T15:11:35;35.10;31.50
65568;DHT22;52211;50.154;8.682;2023-06-26T15:14:02;35.10;30.80
65568;DHT22;52211;50.154;8.682;2023-06-26T15:16:29;35.10;30.80
65568;DHT22;52211;50.154;8.682;2023-06-26T15:18:56;35.20;30.70
65568;DHT22;52211;50.154;8.682;2023-06-26T15:21:31;35.30;30.60
65568;DHT22;52211;50.154;8.682;2023-06-26T15:24:02;35.30;30.00
65568;DHT22;52211;50.154;8.682;2023-06-26T15:26:32;35.20;30.00
65568;DHT22;52211;50.154;8.682;2023-06-26T15:29:03;35.10;30.00
65568;DHT22;52211;50.154;8.682;2023-06-26T15:31:30;35.00;30.00
65568;DHT22;52211;50.154;8.682;2023-06-26T15:33:57;35.00;30.00
65568;DHT22;52211;50.154;8.682;2023-06-26T15:36:27;35.00;30.00
65568;DHT22;52211;50.154;8.682;2023-06-26T15:38:53;35.10;30.00
65568;DHT22;52211;50.154;8.682;2023-06-26T15:41:23;35.20;30.00
65568;DHT22;52211;50.154;8.682;2023-06-26T15:43:52;35.30;30.00
65568;DHT22;52211;50.154;8.682;2023-06-26T15:46:19;35.50;29.90
65568;DHT22;52211;50.154;8.682;2023-06-26T15:48:48;35.50;29.60
65568;DHT22;52211;50.154;8.682;2023-06-26T15:51:15;35.50;29.60
65568;DHT22;52211;50.154;8.682;2023-06-26T15:53:44;35.50;29.50
65568;DHT22;52211;50.154;8.682;2023-06-26T15:56:11;35.50;29.40
65568;DHT22;52211;50.154;8.682;2023-06-26T15:58:39;35.40;29.30
65568;DHT22;52211;50.154;8.682;2023-06-26T16:01:09;35.20;29.10